createdAt,value
2018-06-04T00:00:36.557Z,17.03
2018-06-04T00:03:06.405Z,17.10
2018-06-04T00:05:36.205Z,17.16
2018-06-04T00:08:06.271Z,17.17
2018-06-04T00:10:35.963Z,17.16
2018-06-04T00:13:05.910Z,17.15
2018-06-04T00:15:35.751Z,17.12
2018-06-04T00:18:05.721Z,17.10
2018-06-04T00:20:35.745Z,17.04
2018-06-04T00:23:05.555Z,16.92
2018-06-04T00:25:35.384Z,16.78
2018-06-04T00:28:05.139Z,16.61
2018-06-04T00:30:35.121Z,16.46
2018-06-04T00:33:04.727Z,16.34
2018-06-04T00:35:34.575Z,16.29
2018-06-04T00:38:04.253Z,16.23
2018-06-04T00:40:34.074Z,16.18
2018-06-04T00:43:03.619Z,16.18
2018-06-04T00:45:33.497Z,16.17
2018-06-04T00:48:03.334Z,16.10
2018-06-04T00:50:34.336Z,15.98
2018-06-04T00:53:03.977Z,15.92
2018-06-04T00:55:39.379Z,15.93
2018-06-04T00:58:09.350Z,15.96
2018-06-04T01:00:39.027Z,16.00
2018-06-04T01:03:09.089Z,16.02
2018-06-04T01:05:38.761Z,15.98
2018-06-04T01:08:08.725Z,15.97
2018-06-04T01:10:38.782Z,15.97
2018-06-04T01:13:08.743Z,15.96
2018-06-04T01:15:38.953Z,15.98
2018-06-04T01:18:08.736Z,15.93
2018-06-04T01:20:38.764Z,15.90
2018-06-04T01:23:08.856Z,15.84
2018-06-04T01:25:38.968Z,15.82
2018-06-04T01:28:08.795Z,15.83
2018-06-04T01:30:38.486Z,15.83
2018-06-04T01:33:08.381Z,15.84
2018-06-04T01:35:38.429Z,15.80
2018-06-04T01:38:08.253Z,15.78
2018-06-04T01:40:38.214Z,15.76
2018-06-04T01:43:08.006Z,15.72
2018-06-04T01:45:38.643Z,15.69
2018-06-04T01:48:08.875Z,15.66
2018-06-04T01:50:39.776Z,15.64
2018-06-04T01:53:09.574Z,15.60
2018-06-04T01:55:39.384Z,15.56
2018-06-04T01:58:08.889Z,15.54
2018-06-04T02:00:39.099Z,15.49
2018-06-04T02:03:09.301Z,15.47
2018-06-04T02:05:40.239Z,15.43
2018-06-04T02:08:09.971Z,15.34
2018-06-04T02:10:39.862Z,15.32
2018-06-04T02:13:09.776Z,15.27
2018-06-04T02:15:39.493Z,15.23
2018-06-04T02:18:09.369Z,15.22
2018-06-04T02:20:39.448Z,15.25
2018-06-04T02:23:09.359Z,15.24
2018-06-04T02:25:39.239Z,15.21
2018-06-04T02:28:09.198Z,15.17
2018-06-04T02:30:38.994Z,15.16
2018-06-04T02:33:08.503Z,15.16
2018-06-04T02:35:38.353Z,15.13
2018-06-04T02:38:08.222Z,15.09
2018-06-04T02:40:37.862Z,15.07
2018-06-04T02:43:07.797Z,15.08
2018-06-04T02:45:38.076Z,15.10
2018-06-04T02:48:08.115Z,15.13
2018-06-04T02:50:37.926Z,15.12
2018-06-04T02:53:08.828Z,15.17
2018-06-04T02:55:38.832Z,15.17
2018-06-04T02:58:08.550Z,15.12
2018-06-04T03:00:38.533Z,15.07
2018-06-04T03:03:08.480Z,15.00
2018-06-04T03:05:38.407Z,15.03
2018-06-04T03:08:08.275Z,15.01
2018-06-04T03:10:38.137Z,15.05
2018-06-04T03:13:07.873Z,15.03
2018-06-04T03:15:37.639Z,15.07
2018-06-04T03:18:07.866Z,15.13
2018-06-04T03:20:37.946Z,15.14
2018-06-04T03:23:07.886Z,15.20
2018-06-04T03:25:37.737Z,15.24
2018-06-04T03:28:07.479Z,15.27
2018-06-04T03:30:37.391Z,15.30
2018-06-04T03:33:07.199Z,15.32
2018-06-04T03:35:37.061Z,15.39
2018-06-04T03:38:06.871Z,15.47
2018-06-04T03:40:36.786Z,15.56
2018-06-04T03:43:06.583Z,15.63
2018-06-04T03:45:36.344Z,15.73
2018-06-04T03:48:06.321Z,15.81
2018-06-04T03:50:36.318Z,15.85
2018-06-04T03:53:06.198Z,15.89
2018-06-04T03:55:36.959Z,15.97
2018-06-04T03:58:06.895Z,16.03
2018-06-04T04:00:36.788Z,16.09
2018-06-04T04:03:06.784Z,16.15
2018-06-04T04:05:36.613Z,16.19
2018-06-04T04:08:07.361Z,16.30
2018-06-04T04:10:37.263Z,16.41
2018-06-04T04:13:07.461Z,16.44
2018-06-04T04:15:37.461Z,16.58
2018-06-04T04:18:07.184Z,16.64
2018-06-04T04:20:41.142Z,16.70
2018-06-04T04:23:10.943Z,16.82
2018-06-04T04:25:40.614Z,16.89
2018-06-04T04:28:11.411Z,16.97
2018-06-04T04:30:41.150Z,17.06
2018-06-04T04:33:10.861Z,17.20
2018-06-04T04:35:40.789Z,17.33
2018-06-04T04:38:10.752Z,17.47
2018-06-04T04:40:40.434Z,17.50
2018-06-04T04:43:10.395Z,17.59
2018-06-04T04:45:40.066Z,17.74
2018-06-04T04:48:10.108Z,17.83
2018-06-04T04:50:40.020Z,17.90
2018-06-04T04:53:09.607Z,18.01
2018-06-04T04:55:40.326Z,18.16
2018-06-04T04:58:10.032Z,18.30
2018-06-04T05:00:39.811Z,18.39
2018-06-04T05:03:09.796Z,18.47
2018-06-04T05:05:39.599Z,18.57
2018-06-04T05:08:09.799Z,18.62
2018-06-04T05:10:39.578Z,18.62
2018-06-04T05:13:09.376Z,18.60
2018-06-04T05:15:39.066Z,18.64
2018-06-04T05:18:09.057Z,18.70
2018-06-04T05:20:39.848Z,18.80
2018-06-04T05:23:09.838Z,18.92
2018-06-04T05:25:39.823Z,19.03
2018-06-04T05:28:09.742Z,19.18
2018-06-04T05:30:39.812Z,19.33
2018-06-04T05:33:09.621Z,19.42
2018-06-04T05:35:39.468Z,19.51
2018-06-04T05:38:09.403Z,19.60
2018-06-04T05:40:39.083Z,19.69
2018-06-04T05:43:08.868Z,19.75
2018-06-04T05:45:38.644Z,19.81
2018-06-04T05:48:08.579Z,19.91
2018-06-04T05:50:38.369Z,20.01
2018-06-04T05:53:08.062Z,20.12
2018-06-04T05:55:37.890Z,20.15
2018-06-04T05:58:08.561Z,20.21
2018-06-04T06:00:38.231Z,20.32
2018-06-04T06:03:07.920Z,20.37
2018-06-04T06:05:37.584Z,20.43
2018-06-04T06:08:07.505Z,20.54
2018-06-04T06:10:37.427Z,20.62
2018-06-04T06:13:07.245Z,20.72
2018-06-04T06:15:37.061Z,20.84
2018-06-04T06:18:06.796Z,20.86
2018-06-04T06:20:36.598Z,20.90
2018-06-04T06:23:06.318Z,20.93
2018-06-04T06:25:36.119Z,20.89
2018-06-04T06:28:06.092Z,20.97
2018-06-04T06:30:35.782Z,21.02
2018-06-04T06:33:05.683Z,21.01
2018-06-04T06:35:35.686Z,20.98
2018-06-04T06:38:05.755Z,21.06
2018-06-04T06:40:35.517Z,20.99
2018-06-04T06:43:05.341Z,21.00
2018-06-04T06:45:35.329Z,21.05
2018-06-04T06:48:05.165Z,21.09
2018-06-04T06:50:35.290Z,21.16
2018-06-04T06:53:05.200Z,21.26
2018-06-04T06:55:34.850Z,21.24
2018-06-04T06:58:04.931Z,21.27
2018-06-04T07:00:35.329Z,21.31
2018-06-04T07:03:05.362Z,21.45
2018-06-04T07:05:35.125Z,21.49
2018-06-04T07:08:04.912Z,21.35
2018-06-04T07:10:34.762Z,21.17
2018-06-04T07:13:04.660Z,21.16
2018-06-04T07:15:34.595Z,21.19
2018-06-04T07:18:04.460Z,21.17
2018-06-04T07:20:34.301Z,21.15
2018-06-04T07:23:04.160Z,21.24
2018-06-04T07:25:34.162Z,21.40
2018-06-04T07:28:03.839Z,21.50
2018-06-04T07:30:33.708Z,21.52
2018-06-04T07:33:03.877Z,21.48
2018-06-04T07:35:34.026Z,21.49
2018-06-04T07:38:03.888Z,21.45
2018-06-04T07:40:34.239Z,21.51
2018-06-04T07:43:03.938Z,21.50
2018-06-04T07:45:33.767Z,21.51
2018-06-04T07:48:03.716Z,21.53
2018-06-04T07:50:33.846Z,21.61
2018-06-04T07:53:03.510Z,21.73
2018-06-04T07:55:33.181Z,21.72
2018-06-04T07:58:02.895Z,21.76
2018-06-04T08:00:32.866Z,21.82
2018-06-04T08:03:02.843Z,22.01
2018-06-04T08:05:32.505Z,22.15
2018-06-04T08:08:02.104Z,22.18
2018-06-04T08:10:32.208Z,22.22
2018-06-04T08:13:01.960Z,22.27
2018-06-04T08:15:31.810Z,22.38
2018-06-04T08:18:01.716Z,22.39
2018-06-04T08:20:31.720Z,22.45
2018-06-04T08:23:01.572Z,22.50
2018-06-04T08:25:31.371Z,22.44
2018-06-04T08:28:01.048Z,22.50
2018-06-04T08:30:31.936Z,22.62
2018-06-04T08:33:01.998Z,22.67
2018-06-04T08:35:32.037Z,22.78
2018-06-04T08:38:01.793Z,22.76
2018-06-04T08:40:31.981Z,22.82
2018-06-04T08:43:02.289Z,22.93
2018-06-04T08:45:32.178Z,23.05
2018-06-04T08:48:02.110Z,23.14
2018-06-04T08:50:31.858Z,23.18
2018-06-04T08:53:01.504Z,23.22
2018-06-04T08:55:31.221Z,23.28
2018-06-04T08:58:00.786Z,23.41
2018-06-04T09:00:30.861Z,23.41
2018-06-04T09:03:00.706Z,23.46
2018-06-04T09:05:30.784Z,23.50
2018-06-04T09:08:00.499Z,23.51
2018-06-04T09:10:30.217Z,23.61
2018-06-04T09:13:00.092Z,23.79
2018-06-04T09:15:30.159Z,23.89
2018-06-04T09:17:59.841Z,23.99
2018-06-04T09:20:29.914Z,23.95
2018-06-04T09:23:00.962Z,23.98
2018-06-04T09:25:30.794Z,24.09
2018-06-04T09:28:00.498Z,24.09
2018-06-04T09:30:30.321Z,24.10
2018-06-04T09:33:00.073Z,24.16
2018-06-04T09:35:30.038Z,24.34
2018-06-04T09:37:59.986Z,24.41
2018-06-04T09:40:29.804Z,24.33
2018-06-04T09:42:59.661Z,24.47
2018-06-04T09:45:29.601Z,24.67
2018-06-04T09:47:59.468Z,24.77
2018-06-04T09:50:30.425Z,24.93
2018-06-04T09:53:00.049Z,24.97
2018-06-04T09:55:29.829Z,25.12
2018-06-04T09:58:00.085Z,25.23
2018-06-04T10:00:39.191Z,25.22
2018-06-04T10:03:09.151Z,25.24
2018-06-04T10:05:39.938Z,25.29
2018-06-04T10:08:10.011Z,25.40
2018-06-04T10:10:40.028Z,25.44
2018-06-04T10:13:09.738Z,25.45
2018-06-04T10:15:40.137Z,25.61
2018-06-04T10:18:10.205Z,25.79
2018-06-04T10:20:39.829Z,25.89
2018-06-04T10:23:09.827Z,26.04
2018-06-04T10:25:39.661Z,25.96
2018-06-04T10:28:09.575Z,26.16
2018-06-04T10:30:39.615Z,26.23
2018-06-04T10:33:09.469Z,26.12
2018-06-04T10:35:39.167Z,26.25
2018-06-04T10:38:09.132Z,26.43
2018-06-04T10:40:38.923Z,26.65
2018-06-04T10:43:08.589Z,26.77
2018-06-04T10:45:38.601Z,26.98
2018-06-04T10:48:08.642Z,27.26
2018-06-04T10:50:38.602Z,27.19
2018-06-04T10:53:08.417Z,27.09
2018-06-04T10:55:38.463Z,27.25
2018-06-04T10:58:08.233Z,27.47
2018-06-04T11:00:38.042Z,27.79
2018-06-04T11:03:07.900Z,27.67
2018-06-04T11:05:37.601Z,27.90
2018-06-04T11:08:07.539Z,28.19
2018-06-04T11:10:37.408Z,28.37
2018-06-04T11:13:07.129Z,28.52
2018-06-04T11:15:36.999Z,29.18
2018-06-04T11:18:06.838Z,29.33
2018-06-04T11:20:36.689Z,29.28
2018-06-04T11:23:06.565Z,29.81
2018-06-04T11:25:36.342Z,30.28
2018-06-04T11:28:06.015Z,30.98
2018-06-04T11:30:35.907Z,31.50
2018-06-04T11:33:06.648Z,31.74
2018-06-04T11:35:36.545Z,31.89
2018-06-04T11:38:06.449Z,32.03
2018-06-04T11:40:36.082Z,32.40
2018-06-04T11:43:05.920Z,32.59
2018-06-04T11:45:35.805Z,32.69
2018-06-04T11:48:05.908Z,32.64
2018-06-04T11:50:35.872Z,32.82
2018-06-04T11:53:05.804Z,33.61
2018-06-04T11:55:35.952Z,33.78
2018-06-04T11:58:06.026Z,33.85
2018-06-04T12:00:35.882Z,33.88
2018-06-04T12:03:05.906Z,33.79
2018-06-04T12:05:35.581Z,33.46
2018-06-04T12:08:05.316Z,33.70
2018-06-04T12:53:00.196Z,34.26
2018-06-04T12:55:30.002Z,33.58
2018-06-04T12:58:01.057Z,33.60
2018-06-04T13:00:30.948Z,33.40
2018-06-04T13:03:00.732Z,33.73
2018-06-04T13:05:30.737Z,33.42
2018-06-04T13:08:00.316Z,33.48
2018-06-04T13:10:30.039Z,33.61
2018-06-04T13:13:00.310Z,33.42
2018-06-04T13:15:30.125Z,33.59
2018-06-04T13:18:00.058Z,33.79
2018-06-04T13:20:29.880Z,33.24
2018-06-04T13:22:59.756Z,32.75
2018-06-04T13:25:29.750Z,32.54
2018-06-04T13:27:59.567Z,32.72
2018-06-04T13:30:29.393Z,33.03
2018-06-04T13:32:59.058Z,33.68
2018-06-04T13:35:28.700Z,33.69
2018-06-04T13:37:58.739Z,33.52
2018-06-04T13:40:28.608Z,33.75
2018-06-04T13:42:58.785Z,34.09
2018-06-04T13:45:28.585Z,34.11
2018-06-04T13:47:58.374Z,33.91
2018-06-04T13:50:28.486Z,33.95
2018-06-04T13:52:58.343Z,33.61
2018-06-04T13:55:28.826Z,33.33
2018-06-04T13:57:58.834Z,33.77
2018-06-04T14:00:28.764Z,34.35
2018-06-04T14:02:59.679Z,34.92
2018-06-04T14:05:29.489Z,35.24
2018-06-04T14:07:59.220Z,35.41
2018-06-04T14:10:29.178Z,35.65
2018-06-04T14:12:59.152Z,35.74
2018-06-04T14:15:29.033Z,35.17
2018-06-04T14:17:58.883Z,35.29
2018-06-04T14:20:28.656Z,35.33
2018-06-04T14:22:58.418Z,35.36
2018-06-04T14:25:28.245Z,35.53
2018-06-04T14:27:58.084Z,35.48
2018-06-04T14:30:27.711Z,34.95
2018-06-04T14:32:57.518Z,35.14
2018-06-04T14:35:27.516Z,35.23
2018-06-04T14:37:57.250Z,35.17
2018-06-04T14:40:27.459Z,35.30
2018-06-04T14:42:57.427Z,35.23
2018-06-04T14:45:27.480Z,35.54
2018-06-04T14:47:57.364Z,35.51
2018-06-04T14:50:27.180Z,35.35
2018-06-04T14:52:57.037Z,35.22
2018-06-04T14:55:27.203Z,35.47
2018-06-04T14:57:57.312Z,35.59
2018-06-04T15:00:27.509Z,35.87
2018-06-04T15:02:57.268Z,35.96
2018-06-04T15:05:27.208Z,34.78
2018-06-04T15:07:57.473Z,34.01
2018-06-04T15:10:27.539Z,34.52
2018-06-04T15:12:57.543Z,34.09
2018-06-04T15:15:27.514Z,33.95
2018-06-04T15:17:58.354Z,33.72
2018-06-04T15:20:28.155Z,34.00
2018-06-04T15:22:57.982Z,34.77
2018-06-04T15:25:27.626Z,34.98
2018-06-04T15:27:58.585Z,35.46
2018-06-04T15:30:28.356Z,35.42
2018-06-04T15:32:58.276Z,34.91
2018-06-04T15:35:28.026Z,35.21
2018-06-04T15:37:57.999Z,35.83
2018-06-04T15:40:28.552Z,35.97
2018-06-04T15:42:58.640Z,36.23
2018-06-04T15:45:31.632Z,36.84
2018-06-04T15:48:01.406Z,36.55
2018-06-04T15:50:31.385Z,36.06
2018-06-04T15:53:01.287Z,36.22
2018-06-04T15:55:32.219Z,35.96
2018-06-04T15:58:02.220Z,35.88
2018-06-04T16:00:31.805Z,36.03
2018-06-04T16:03:01.573Z,36.21
2018-06-04T16:05:31.548Z,36.47
2018-06-04T16:08:01.401Z,36.69
2018-06-04T16:10:31.353Z,36.33
2018-06-04T16:13:01.320Z,36.21
2018-06-04T16:15:31.161Z,36.06
2018-06-04T16:18:01.162Z,35.63
2018-06-04T16:20:31.115Z,35.28
2018-06-04T16:23:01.324Z,35.64
2018-06-04T16:25:31.077Z,36.06
2018-06-04T16:28:01.013Z,35.99
2018-06-04T16:30:30.989Z,36.12
2018-06-04T16:33:00.817Z,36.38
2018-06-04T16:35:30.864Z,36.57
2018-06-04T16:38:01.804Z,36.55
2018-06-04T16:40:32.132Z,35.76
2018-06-04T16:43:03.193Z,35.48
2018-06-04T16:45:33.405Z,35.51
2018-06-04T16:48:04.263Z,35.57
2018-06-04T16:50:34.350Z,35.19
2018-06-04T16:53:04.216Z,34.79
2018-06-04T16:55:36.199Z,34.51
2018-06-04T16:58:07.380Z,34.16
2018-06-04T17:00:37.231Z,33.42
2018-06-04T17:03:07.357Z,32.94
2018-06-04T17:05:37.233Z,32.57
2018-06-04T17:08:07.325Z,32.11
2018-06-04T17:10:37.122Z,32.23
2018-06-04T17:13:06.857Z,32.67
2018-06-04T17:15:36.835Z,32.71
2018-06-04T17:18:06.703Z,32.39
2018-06-04T17:20:36.526Z,32.14
2018-06-04T17:23:06.263Z,31.88
2018-06-04T17:25:35.950Z,31.60
2018-06-04T17:28:06.050Z,31.33
2018-06-04T17:30:35.769Z,30.96
2018-06-04T17:33:05.589Z,30.65
2018-06-04T17:35:35.553Z,30.59
2018-06-04T17:38:12.115Z,30.35
2018-06-04T17:40:42.583Z,30.15
2018-06-04T17:43:12.550Z,30.13
2018-06-04T17:45:42.520Z,29.97
2018-06-04T17:48:12.373Z,29.73
2018-06-04T17:50:42.213Z,29.28
2018-06-04T17:53:12.129Z,28.77
2018-06-04T17:55:41.924Z,28.20
2018-06-04T17:58:12.370Z,27.69
2018-06-04T18:00:42.370Z,27.28
2018-06-04T18:03:12.287Z,27.06
2018-06-04T18:05:42.089Z,26.79
2018-06-04T18:08:12.143Z,26.60
2018-06-04T18:10:42.103Z,26.38
2018-06-04T18:13:12.128Z,26.22
2018-06-04T18:15:42.248Z,26.07
2018-06-04T18:18:12.255Z,25.90
2018-06-04T18:20:42.257Z,25.69
2018-06-04T18:23:12.221Z,25.58
2018-06-04T18:25:42.119Z,25.47
2018-06-04T18:28:12.102Z,25.41
2018-06-04T18:30:41.939Z,25.33
2018-06-04T18:33:11.736Z,25.25
2018-06-04T18:35:41.697Z,25.20
2018-06-04T18:38:11.582Z,25.13
2018-06-04T18:40:42.212Z,25.11
2018-06-04T18:43:12.202Z,25.08
2018-06-04T18:45:41.925Z,25.03
2018-06-04T18:48:11.959Z,24.99
2018-06-04T18:50:41.748Z,24.98
2018-06-04T18:53:11.463Z,24.92
2018-06-04T18:55:41.524Z,24.88
2018-06-04T18:58:11.111Z,24.93
2018-06-04T19:00:41.251Z,24.82
2018-06-04T19:03:11.371Z,24.68
2018-06-04T19:05:41.441Z,24.54
2018-06-04T19:08:11.534Z,24.38
2018-06-04T19:10:41.373Z,24.27
2018-06-04T19:13:11.313Z,24.20
2018-06-04T19:15:41.128Z,24.11
2018-06-04T19:18:11.328Z,24.09
2018-06-04T19:20:41.509Z,24.08
2018-06-04T19:23:11.566Z,24.05
2018-06-04T19:25:41.741Z,24.01
2018-06-04T19:28:11.773Z,23.90
2018-06-04T19:30:41.719Z,23.78
2018-06-04T19:33:11.594Z,23.72
2018-06-04T19:35:41.424Z,23.66
2018-06-04T19:38:11.311Z,23.59
2018-06-04T19:40:41.476Z,23.53
2018-06-04T19:43:11.682Z,23.42
2018-06-04T19:45:41.880Z,23.43
2018-06-04T19:48:12.970Z,23.42
2018-06-04T19:50:42.997Z,23.41
2018-06-04T19:53:13.007Z,23.43
2018-06-04T19:55:42.618Z,23.42
2018-06-04T19:58:12.532Z,23.38
2018-06-04T20:00:42.679Z,23.40
2018-06-04T20:03:12.688Z,23.39
2018-06-04T20:05:42.581Z,23.42
2018-06-04T20:08:12.512Z,23.48
2018-06-04T20:10:42.484Z,23.52
2018-06-04T20:13:12.327Z,23.60
2018-06-04T20:15:43.138Z,23.62
2018-06-04T20:18:12.985Z,23.60
2018-06-04T20:20:42.999Z,23.60
2018-06-04T20:23:13.053Z,23.56
2018-06-04T20:25:42.965Z,23.51
2018-06-04T20:28:14.673Z,23.44
2018-06-04T20:30:44.714Z,23.41
2018-06-04T20:33:14.541Z,23.46
2018-06-04T20:35:44.347Z,23.50
2018-06-04T20:38:14.426Z,23.57
2018-06-04T20:40:44.549Z,23.57
2018-06-04T20:43:15.099Z,23.52
2018-06-04T20:45:45.278Z,23.45
2018-06-04T20:48:15.525Z,23.36
2018-06-04T20:50:45.101Z,23.25
2018-06-04T20:53:15.040Z,23.17
2018-06-04T20:55:44.818Z,23.09
2018-06-04T20:58:14.811Z,23.08
2018-06-04T21:00:45.151Z,22.97
2018-06-04T21:03:16.240Z,22.85
2018-06-04T21:05:46.273Z,22.72
2018-06-04T21:08:16.207Z,22.54
2018-06-04T21:10:46.109Z,22.19
2018-06-04T21:13:15.916Z,21.90
2018-06-04T21:15:46.260Z,21.79
2018-06-04T21:18:17.485Z,21.70
2018-06-04T21:20:47.416Z,21.66
2018-06-04T21:23:16.977Z,21.65
2018-06-04T21:25:47.147Z,21.63
2018-06-04T21:28:18.012Z,21.58
2018-06-04T21:30:48.123Z,21.57
2018-06-04T21:33:17.973Z,21.55
2018-06-04T21:35:48.046Z,21.55
2018-06-04T21:38:18.105Z,21.55
2018-06-04T21:40:48.105Z,21.56
2018-06-04T21:43:17.947Z,21.58
2018-06-04T21:45:47.893Z,21.59
2018-06-04T21:48:17.720Z,21.59
2018-06-04T21:50:47.581Z,21.59
2018-06-04T21:53:17.727Z,21.58
2018-06-04T21:55:47.589Z,21.58
2018-06-04T21:58:17.288Z,21.58
2018-06-04T22:00:47.811Z,21.55
2018-06-04T22:03:17.741Z,21.46
2018-06-04T22:05:47.682Z,21.39
2018-06-04T22:08:17.533Z,21.34
2018-06-04T22:10:47.399Z,21.24
2018-06-04T22:13:17.334Z,21.23
2018-06-04T22:15:47.208Z,21.21
2018-06-04T22:18:17.089Z,21.18
2018-06-04T22:20:47.066Z,21.18
2018-06-04T22:23:17.051Z,21.15
2018-06-04T22:25:47.099Z,21.12
2018-06-04T22:28:17.044Z,21.10
2018-06-04T22:30:48.724Z,21.04
2018-06-04T22:33:18.685Z,21.08
2018-06-04T22:35:48.446Z,21.06
2018-06-04T22:38:18.091Z,21.01
2018-06-04T22:40:47.908Z,20.94
2018-06-04T22:43:17.737Z,20.89
2018-06-04T22:45:47.350Z,20.88
2018-06-04T22:48:17.272Z,20.83
2018-06-04T22:50:47.408Z,20.76
2018-06-04T22:53:17.304Z,20.70
2018-06-04T22:55:47.262Z,20.66
2018-06-04T22:58:17.061Z,20.67
2018-06-04T23:00:46.817Z,20.66
2018-06-04T23:03:17.143Z,20.65
2018-06-04T23:05:46.803Z,20.65
2018-06-04T23:08:16.653Z,20.59
2018-06-04T23:10:46.428Z,20.47
2018-06-04T23:13:16.345Z,20.37
2018-06-04T23:15:46.587Z,20.28
2018-06-04T23:18:23.262Z,20.28
2018-06-04T23:20:53.247Z,20.15
2018-06-04T23:23:23.522Z,20.13
2018-06-04T23:25:53.275Z,20.14
2018-06-04T23:28:23.409Z,20.11
2018-06-04T23:30:57.376Z,20.07
2018-06-04T23:33:27.358Z,20.05
2018-06-04T23:35:57.315Z,19.94
2018-06-04T23:38:27.189Z,19.83
2018-06-04T23:40:57.088Z,19.78
2018-06-04T23:43:27.236Z,19.80
2018-06-04T23:45:56.985Z,19.71
2018-06-04T23:48:27.150Z,19.71
2018-06-04T23:50:56.941Z,19.67
2018-06-04T23:53:26.936Z,19.64
2018-06-04T23:55:56.941Z,19.59
2018-06-04T23:58:26.644Z,19.47
